createdAt,value
2017-12-28T00:00:39.013Z,0
2017-12-28T00:01:19.591Z,0
2017-12-28T00:02:00.147Z,0
2017-12-28T00:02:40.663Z,0
2017-12-28T00:03:21.195Z,0
2017-12-28T00:04:01.710Z,0
2017-12-28T00:04:42.241Z,0
2017-12-28T00:05:22.800Z,0
2017-12-28T00:06:03.327Z,0
2017-12-28T00:06:43.905Z,0
2017-12-28T00:07:24.424Z,0
2017-12-28T00:08:05.009Z,0
2017-12-28T00:08:45.542Z,0
2017-12-28T00:09:26.069Z,0
2017-12-28T00:10:06.619Z,0
2017-12-28T00:10:47.191Z,0
2017-12-28T00:11:27.676Z,0
2017-12-28T00:12:08.230Z,0
2017-12-28T00:12:48.755Z,0
2017-12-28T00:13:29.308Z,0
2017-12-28T00:14:09.880Z,0
2017-12-28T00:14:50.408Z,0
2017-12-28T00:15:30.964Z,0
2017-12-28T00:16:11.534Z,0
2017-12-28T00:16:52.059Z,0
2017-12-28T00:17:32.602Z,0
2017-12-28T00:18:13.132Z,0
2017-12-28T00:18:53.683Z,0
2017-12-28T00:19:34.209Z,0
2017-12-28T00:20:14.740Z,0
2017-12-28T00:20:55.283Z,0
2017-12-28T00:21:35.772Z,0
2017-12-28T00:22:16.363Z,0
2017-12-28T00:22:56.937Z,0
2017-12-28T00:23:37.500Z,0
2017-12-28T00:24:18.036Z,0
2017-12-28T00:24:58.566Z,0
2017-12-28T00:25:39.104Z,0
2017-12-28T00:26:19.672Z,0
2017-12-28T00:27:00.411Z,0
2017-12-28T00:27:40.961Z,0
2017-12-28T00:28:21.503Z,0
2017-12-28T00:29:02.054Z,0
2017-12-28T00:29:42.588Z,0
2017-12-28T00:30:23.148Z,0
2017-12-28T00:31:03.648Z,0
2017-12-28T00:31:44.198Z,0
2017-12-28T00:32:24.733Z,0
2017-12-28T00:33:05.265Z,0
2017-12-28T00:33:45.800Z,0
2017-12-28T00:34:26.338Z,0
2017-12-28T00:35:06.900Z,0
2017-12-28T00:35:47.469Z,0
2017-12-28T00:36:27.980Z,0
2017-12-28T00:37:08.502Z,0
2017-12-28T00:37:49.058Z,0
2017-12-28T00:38:29.606Z,0
2017-12-28T00:39:10.139Z,0
2017-12-28T00:39:50.694Z,0
2017-12-28T00:40:31.241Z,0
2017-12-28T00:41:11.782Z,0
2017-12-28T00:41:52.313Z,0
2017-12-28T00:42:32.868Z,0
2017-12-28T00:43:13.419Z,0
2017-12-28T00:43:53.942Z,0
2017-12-28T00:44:34.492Z,0
2017-12-28T00:45:15.063Z,0
2017-12-28T00:45:55.599Z,0
2017-12-28T00:46:36.135Z,0
2017-12-28T00:47:16.666Z,0
2017-12-28T00:47:57.228Z,0
2017-12-28T00:48:37.771Z,0
2017-12-28T00:49:18.320Z,0
2017-12-28T00:49:58.881Z,0
2017-12-28T00:50:39.408Z,0
2017-12-28T00:51:19.952Z,0
2017-12-28T00:52:00.494Z,0
2017-12-28T00:52:41.038Z,0
2017-12-28T00:53:21.607Z,0
2017-12-28T00:54:02.154Z,0
2017-12-28T00:54:42.703Z,0
2017-12-28T00:55:23.268Z,0
2017-12-28T00:56:03.819Z,0
2017-12-28T00:56:44.376Z,0
2017-12-28T00:57:24.946Z,0
2017-12-28T00:58:05.499Z,0
2017-12-28T00:58:46.075Z,0
2017-12-28T00:59:26.575Z,0
2017-12-28T01:00:07.168Z,0
2017-12-28T01:00:47.709Z,0
2017-12-28T01:01:28.247Z,0
2017-12-28T01:02:08.781Z,0
2017-12-28T01:02:49.315Z,0
2017-12-28T01:03:29.856Z,0
2017-12-28T01:04:10.417Z,0
2017-12-28T01:04:50.965Z,0
2017-12-28T01:05:31.489Z,0
2017-12-28T01:06:12.069Z,0
2017-12-28T01:06:52.569Z,0
2017-12-28T01:07:33.147Z,0
2017-12-28T01:08:13.708Z,0
2017-12-28T01:08:54.248Z,0
2017-12-28T01:09:34.791Z,0
2017-12-28T01:10:15.299Z,0
2017-12-28T01:10:55.870Z,0
2017-12-28T01:11:36.421Z,0
2017-12-28T01:12:16.987Z,0
2017-12-28T01:12:57.490Z,0
2017-12-28T01:13:38.071Z,0
2017-12-28T01:14:18.603Z,0
2017-12-28T01:14:59.126Z,0
2017-12-28T01:15:39.655Z,0
2017-12-28T01:16:20.204Z,0
2017-12-28T01:17:00.749Z,0
2017-12-28T01:17:41.307Z,0
2017-12-28T01:18:21.810Z,0
2017-12-28T01:19:02.372Z,0
2017-12-28T01:19:42.860Z,0
2017-12-28T01:20:23.414Z,0
2017-12-28T01:21:04.010Z,0
2017-12-28T01:21:44.503Z,0
2017-12-28T01:22:25.060Z,0
2017-12-28T01:23:05.572Z,0
2017-12-28T01:23:46.113Z,0
2017-12-28T01:24:26.665Z,0
2017-12-28T01:25:07.208Z,0
2017-12-28T01:25:47.738Z,0
2017-12-28T01:26:28.234Z,0
2017-12-28T01:27:08.793Z,0
2017-12-28T01:27:49.377Z,0
2017-12-28T01:28:29.901Z,0
2017-12-28T01:29:10.422Z,0
2017-12-28T01:29:50.967Z,0
2017-12-28T01:30:31.522Z,0
2017-12-28T01:31:12.033Z,0
2017-12-28T01:31:52.554Z,0
2017-12-28T01:32:33.103Z,0
2017-12-28T01:33:13.720Z,0
2017-12-28T01:33:54.213Z,0
2017-12-28T01:34:34.756Z,0
2017-12-28T01:35:15.318Z,0
2017-12-28T01:35:55.891Z,0
2017-12-28T01:36:36.392Z,0
2017-12-28T01:37:16.919Z,0
2017-12-28T01:37:57.453Z,0
2017-12-28T01:38:38.003Z,0
2017-12-28T01:39:18.533Z,0
2017-12-28T01:39:59.031Z,0
2017-12-28T01:40:39.592Z,0
2017-12-28T01:41:20.099Z,0
2017-12-28T01:42:00.658Z,0
2017-12-28T01:42:41.157Z,0
2017-12-28T01:43:21.735Z,0
2017-12-28T01:44:02.377Z,0
2017-12-28T01:44:42.846Z,0
2017-12-28T01:45:23.374Z,0
2017-12-28T01:46:03.923Z,0
2017-12-28T01:46:44.483Z,0
2017-12-28T01:47:25.012Z,0
2017-12-28T01:48:05.545Z,0
2017-12-28T01:48:46.109Z,0
2017-12-28T01:49:26.703Z,0
2017-12-28T01:50:07.230Z,0
2017-12-28T01:50:47.786Z,0
2017-12-28T01:51:28.344Z,0
2017-12-28T01:52:08.881Z,0
2017-12-28T01:52:49.499Z,0
2017-12-28T01:53:29.989Z,0
2017-12-28T01:54:10.535Z,0
2017-12-28T01:54:51.085Z,0
2017-12-28T01:55:31.586Z,0
2017-12-28T01:56:12.147Z,0
2017-12-28T01:56:52.724Z,0
2017-12-28T01:57:33.225Z,0
2017-12-28T01:58:13.847Z,0
2017-12-28T01:58:54.367Z,0
2017-12-28T01:59:34.913Z,0
2017-12-28T02:00:15.417Z,0
2017-12-28T02:00:55.953Z,0
2017-12-28T02:01:36.497Z,0
2017-12-28T02:02:17.092Z,0
2017-12-28T02:02:57.585Z,0
2017-12-28T02:03:38.133Z,0
2017-12-28T02:04:18.687Z,0
2017-12-28T02:04:59.223Z,0
2017-12-28T02:05:39.769Z,0
2017-12-28T02:06:20.268Z,0
2017-12-28T02:07:00.777Z,0
2017-12-28T02:07:41.361Z,0
2017-12-28T02:08:21.865Z,0
2017-12-28T02:09:02.423Z,0
2017-12-28T02:09:42.970Z,0
2017-12-28T02:10:23.464Z,0
2017-12-28T02:11:04.002Z,0
2017-12-28T02:11:44.573Z,0
2017-12-28T02:12:25.137Z,0
2017-12-28T02:13:05.652Z,0
2017-12-28T02:13:46.199Z,0
2017-12-28T02:14:26.745Z,0
2017-12-28T02:15:07.289Z,0
2017-12-28T02:15:47.849Z,0
2017-12-28T02:16:28.390Z,0
2017-12-28T02:17:08.942Z,0
2017-12-28T02:17:49.485Z,0
2017-12-28T02:18:30.052Z,0
2017-12-28T02:19:10.575Z,0
2017-12-28T02:19:51.132Z,0
2017-12-28T02:20:31.677Z,0
2017-12-28T02:21:12.262Z,0
2017-12-28T02:21:52.793Z,0
2017-12-28T02:22:33.350Z,0
2017-12-28T02:23:13.901Z,0
2017-12-28T02:23:54.465Z,0
2017-12-28T02:24:34.977Z,0
2017-12-28T02:25:15.560Z,0
2017-12-28T02:25:56.085Z,0
2017-12-28T02:26:36.600Z,0
2017-12-28T02:27:17.198Z,0
2017-12-28T02:27:57.744Z,0
2017-12-28T02:28:38.272Z,0
2017-12-28T02:29:18.790Z,0
2017-12-28T02:29:59.337Z,0
2017-12-28T02:30:39.870Z,0
2017-12-28T02:31:20.413Z,0
2017-12-28T02:32:00.956Z,0
2017-12-28T02:32:41.512Z,0
2017-12-28T02:33:22.046Z,0
2017-12-28T02:34:02.544Z,0
2017-12-28T02:34:43.069Z,0
2017-12-28T02:35:23.621Z,0
2017-12-28T02:36:04.169Z,0
2017-12-28T02:36:44.695Z,0
2017-12-28T02:37:25.259Z,0
2017-12-28T02:38:05.794Z,0
2017-12-28T02:38:46.318Z,0
2017-12-28T02:39:26.828Z,0
2017-12-28T02:40:07.367Z,0
2017-12-28T02:40:47.922Z,0
2017-12-28T02:41:28.461Z,0
2017-12-28T02:42:08.991Z,0
2017-12-28T02:42:49.548Z,0
2017-12-28T02:43:30.107Z,0
2017-12-28T02:44:10.663Z,0
2017-12-28T02:44:51.211Z,0
2017-12-28T02:45:31.754Z,0
2017-12-28T02:46:12.326Z,0
2017-12-28T02:46:52.862Z,0
2017-12-28T02:47:33.349Z,0
2017-12-28T02:48:13.868Z,0
2017-12-28T02:48:54.455Z,0
2017-12-28T02:49:34.992Z,0
2017-12-28T02:50:15.516Z,0
2017-12-28T02:50:56.059Z,0
2017-12-28T02:51:36.635Z,0
2017-12-28T02:52:17.181Z,0
2017-12-28T02:52:57.701Z,0
2017-12-28T02:53:38.246Z,0
2017-12-28T02:54:18.763Z,0
2017-12-28T02:54:59.324Z,0
2017-12-28T02:55:39.855Z,0
2017-12-28T02:56:20.404Z,0
2017-12-28T02:57:00.945Z,0
2017-12-28T02:57:41.441Z,0
2017-12-28T02:58:21.977Z,0
2017-12-28T02:59:02.556Z,0
2017-12-28T02:59:43.083Z,0
2017-12-28T03:00:23.662Z,0
2017-12-28T03:01:04.181Z,0
2017-12-28T03:01:44.745Z,0
2017-12-28T03:02:25.229Z,0
2017-12-28T03:03:05.736Z,0
2017-12-28T03:03:46.309Z,0
2017-12-28T03:04:26.872Z,0
2017-12-28T03:05:07.440Z,0
2017-12-28T03:05:47.931Z,0
2017-12-28T03:06:28.474Z,0
2017-12-28T03:07:08.979Z,0
2017-12-28T03:07:49.523Z,0
2017-12-28T03:08:30.088Z,0
2017-12-28T03:09:10.632Z,0
2017-12-28T03:09:51.179Z,0
2017-12-28T03:10:31.711Z,0
2017-12-28T03:11:12.262Z,0
2017-12-28T03:11:52.779Z,0
2017-12-28T03:12:33.335Z,0
2017-12-28T03:13:13.866Z,0
2017-12-28T03:13:54.384Z,0
2017-12-28T03:14:34.926Z,0
2017-12-28T03:15:15.465Z,0
2017-12-28T03:15:56.015Z,0
2017-12-28T03:16:36.514Z,0
2017-12-28T03:17:17.087Z,0
2017-12-28T03:17:57.629Z,0
2017-12-28T03:18:38.147Z,0
2017-12-28T03:19:18.707Z,0
2017-12-28T03:19:59.219Z,0
2017-12-28T03:20:39.776Z,0
2017-12-28T03:21:20.350Z,0
2017-12-28T03:22:00.874Z,0
2017-12-28T03:22:41.402Z,0
2017-12-28T03:23:21.967Z,0
2017-12-28T03:24:02.489Z,0
2017-12-28T03:24:43.038Z,0
2017-12-28T03:25:23.550Z,0
2017-12-28T03:26:04.128Z,0
2017-12-28T03:26:44.646Z,0
2017-12-28T03:27:25.208Z,0
2017-12-28T03:28:05.755Z,0
2017-12-28T03:28:46.295Z,0
2017-12-28T03:29:26.808Z,0
2017-12-28T03:30:07.376Z,0
2017-12-28T03:30:47.887Z,0
2017-12-28T03:31:28.433Z,0
2017-12-28T03:32:08.948Z,0
2017-12-28T03:32:49.484Z,0
2017-12-28T03:33:30.041Z,0
2017-12-28T03:34:10.575Z,0
2017-12-28T03:34:51.151Z,0
2017-12-28T03:35:31.670Z,0
2017-12-28T03:36:12.181Z,0
2017-12-28T03:36:52.728Z,0
2017-12-28T03:37:33.265Z,0
2017-12-28T03:38:13.798Z,0
2017-12-28T03:38:54.379Z,0
2017-12-28T03:39:34.880Z,0
2017-12-28T03:40:15.410Z,0
2017-12-28T03:40:55.954Z,0
2017-12-28T03:41:36.502Z,0
2017-12-28T03:42:17.060Z,0
2017-12-28T03:42:57.578Z,0
2017-12-28T03:43:38.085Z,0
2017-12-28T03:44:18.632Z,0
2017-12-28T03:44:59.185Z,0
2017-12-28T03:45:39.702Z,0
2017-12-28T03:46:20.235Z,0
2017-12-28T03:47:00.777Z,0
2017-12-28T03:47:41.334Z,0
2017-12-28T03:48:21.872Z,0
2017-12-28T03:49:02.418Z,0
2017-12-28T03:49:42.960Z,0
2017-12-28T03:50:23.511Z,0
2017-12-28T03:51:04.023Z,0
2017-12-28T03:51:44.624Z,0
2017-12-28T03:52:25.171Z,0
2017-12-28T03:53:05.678Z,0
2017-12-28T03:53:46.218Z,0
2017-12-28T03:54:26.786Z,0
2017-12-28T03:55:07.314Z,0
2017-12-28T03:55:47.856Z,0
2017-12-28T03:56:28.424Z,0
2017-12-28T03:57:08.989Z,0
2017-12-28T03:57:49.509Z,0
2017-12-28T03:58:30.129Z,0
2017-12-28T03:59:10.584Z,0
2017-12-28T03:59:51.136Z,0
2017-12-28T04:00:31.641Z,0
2017-12-28T04:01:12.196Z,0
2017-12-28T04:01:52.760Z,0
2017-12-28T04:02:33.268Z,0
2017-12-28T04:03:13.830Z,0
2017-12-28T04:03:54.347Z,0
2017-12-28T04:04:34.933Z,0
2017-12-28T04:05:15.455Z,0
2017-12-28T04:05:56.035Z,0
2017-12-28T04:06:36.569Z,0
2017-12-28T04:07:17.183Z,0
2017-12-28T04:07:57.731Z,0
2017-12-28T04:08:38.258Z,0
2017-12-28T04:09:18.786Z,0
2017-12-28T04:09:59.325Z,0
2017-12-28T04:10:39.904Z,0
2017-12-28T04:11:20.455Z,0
2017-12-28T04:12:01.007Z,0
2017-12-28T04:12:41.558Z,0
2017-12-28T04:13:22.080Z,0
2017-12-28T04:14:02.628Z,0
2017-12-28T04:14:43.151Z,0
2017-12-28T04:15:23.656Z,0
2017-12-28T04:16:04.173Z,0
2017-12-28T04:16:44.721Z,0
2017-12-28T04:17:25.274Z,0
2017-12-28T04:18:05.813Z,0
2017-12-28T04:18:46.336Z,0
2017-12-28T04:19:26.867Z,0
2017-12-28T04:20:07.413Z,0
2017-12-28T04:20:47.959Z,0
2017-12-28T04:21:28.523Z,0
2017-12-28T04:22:09.059Z,0
2017-12-28T04:22:49.606Z,0
2017-12-28T04:23:30.140Z,0
2017-12-28T04:24:10.681Z,0
2017-12-28T04:24:51.233Z,0
2017-12-28T04:25:31.754Z,0
2017-12-28T04:26:12.356Z,0
2017-12-28T04:26:52.847Z,0
2017-12-28T04:27:33.415Z,0
2017-12-28T04:28:13.943Z,0
2017-12-28T04:28:54.480Z,0
2017-12-28T04:29:35.017Z,0
2017-12-28T04:30:15.630Z,0
2017-12-28T04:30:56.159Z,0
2017-12-28T04:31:36.686Z,0
2017-12-28T04:32:17.197Z,0
2017-12-28T04:32:57.772Z,0
2017-12-28T04:33:38.285Z,0
2017-12-28T04:34:18.839Z,0
2017-12-28T04:34:59.365Z,0
2017-12-28T04:35:39.894Z,0
2017-12-28T04:36:20.444Z,0
2017-12-28T04:37:00.962Z,0
2017-12-28T04:37:41.532Z,0
2017-12-28T04:38:22.025Z,0
2017-12-28T04:39:02.581Z,0
2017-12-28T04:39:43.098Z,0
2017-12-28T04:40:23.640Z,0
2017-12-28T04:41:04.181Z,0
2017-12-28T04:41:44.729Z,0
2017-12-28T04:42:25.281Z,0
2017-12-28T04:43:05.833Z,0
2017-12-28T04:43:46.394Z,0
2017-12-28T04:44:26.905Z,0
2017-12-28T04:45:07.443Z,0
2017-12-28T04:45:48.012Z,0
2017-12-28T04:46:28.561Z,0
2017-12-28T04:47:09.112Z,0
2017-12-28T04:47:49.654Z,0
2017-12-28T04:48:30.198Z,0
2017-12-28T04:49:10.726Z,0
2017-12-28T04:49:51.251Z,0
2017-12-28T04:50:31.744Z,0
2017-12-28T04:51:12.286Z,0
2017-12-28T04:51:52.839Z,0
2017-12-28T04:52:33.380Z,0
2017-12-28T04:53:13.900Z,0
2017-12-28T04:53:54.417Z,0
2017-12-28T04:54:34.975Z,0
2017-12-28T04:55:15.529Z,0
2017-12-28T04:55:56.076Z,0
2017-12-28T04:56:36.665Z,0
2017-12-28T04:57:17.134Z,0
2017-12-28T04:57:57.704Z,0
2017-12-28T04:58:38.254Z,0
2017-12-28T04:59:18.793Z,0
2017-12-28T04:59:59.287Z,0
2017-12-28T05:00:39.856Z,0
2017-12-28T05:01:20.410Z,0
2017-12-28T05:02:00.902Z,0
2017-12-28T05:02:41.448Z,0
2017-12-28T05:03:22.026Z,0
2017-12-28T05:04:02.590Z,0
2017-12-28T05:04:43.107Z,0
2017-12-28T05:05:23.629Z,0
2017-12-28T05:06:04.174Z,0
2017-12-28T05:06:44.702Z,0
2017-12-28T05:07:25.279Z,0
2017-12-28T05:08:05.755Z,0
2017-12-28T05:08:46.310Z,0
2017-12-28T05:09:26.841Z,0
2017-12-28T05:10:07.373Z,0
2017-12-28T05:10:47.918Z,0
2017-12-28T05:11:28.457Z,0
2017-12-28T05:12:09.008Z,0
2017-12-28T05:12:49.511Z,0
2017-12-28T05:13:30.071Z,0
2017-12-28T05:14:10.576Z,0
2017-12-28T05:14:51.080Z,0
2017-12-28T05:15:31.658Z,0
2017-12-28T05:16:12.203Z,0
2017-12-28T05:16:52.716Z,0
2017-12-28T05:17:33.279Z,0
2017-12-28T05:18:13.838Z,0
2017-12-28T05:18:54.390Z,0
2017-12-28T05:19:34.922Z,0
2017-12-28T05:20:15.488Z,0
2017-12-28T05:20:55.994Z,0
2017-12-28T05:21:36.559Z,0
2017-12-28T05:22:17.102Z,0
2017-12-28T05:22:57.643Z,0
2017-12-28T05:23:38.180Z,0
2017-12-28T05:24:18.734Z,0
2017-12-28T05:24:59.280Z,0
2017-12-28T05:25:39.798Z,0
2017-12-28T05:26:20.377Z,0
2017-12-28T05:27:00.934Z,0
2017-12-28T05:27:41.504Z,0
2017-12-28T05:28:22.039Z,0
2017-12-28T05:29:02.583Z,0
2017-12-28T05:29:43.135Z,0
2017-12-28T05:30:23.631Z,0
2017-12-28T05:31:04.175Z,0
2017-12-28T05:31:44.757Z,0
2017-12-28T05:32:25.258Z,0
2017-12-28T05:33:05.839Z,0
2017-12-28T05:33:46.368Z,0
2017-12-28T05:34:26.911Z,0
2017-12-28T05:35:07.419Z,0
2017-12-28T05:35:47.958Z,0
2017-12-28T05:36:28.483Z,0
2017-12-28T05:37:09.025Z,0
2017-12-28T05:37:49.570Z,0
2017-12-28T05:38:30.110Z,0
2017-12-28T05:39:10.638Z,0
2017-12-28T05:39:51.189Z,0
2017-12-28T05:40:31.750Z,0
2017-12-28T05:41:12.366Z,0
2017-12-28T05:41:52.872Z,0
2017-12-28T05:42:33.410Z,0
2017-12-28T05:43:13.957Z,0
2017-12-28T05:43:54.521Z,0
2017-12-28T05:44:35.041Z,0
2017-12-28T05:45:15.585Z,0
2017-12-28T05:45:56.141Z,0
2017-12-28T05:46:36.611Z,0
2017-12-28T05:47:17.200Z,0
2017-12-28T05:47:57.722Z,0
2017-12-28T05:48:38.236Z,0
2017-12-28T05:49:18.796Z,0
2017-12-28T05:49:59.363Z,0
2017-12-28T05:50:39.923Z,0
2017-12-28T05:51:20.484Z,0
2017-12-28T05:52:01.013Z,0
2017-12-28T05:52:41.537Z,0
2017-12-28T05:53:22.082Z,0
2017-12-28T05:54:02.591Z,0
2017-12-28T05:54:43.126Z,0
2017-12-28T05:55:23.705Z,0
2017-12-28T05:56:04.216Z,0
2017-12-28T05:56:44.731Z,0
2017-12-28T05:57:25.215Z,0
2017-12-28T05:58:05.775Z,0
2017-12-28T05:58:46.333Z,0
2017-12-28T05:59:26.875Z,0
2017-12-28T06:00:07.405Z,0
2017-12-28T06:00:47.947Z,0
2017-12-28T06:01:28.496Z,0
2017-12-28T06:02:08.987Z,0
2017-12-28T06:02:49.515Z,0
2017-12-28T06:03:30.129Z,0
2017-12-28T06:04:10.631Z,0
2017-12-28T06:04:51.145Z,0
2017-12-28T06:05:31.681Z,0
2017-12-28T06:06:12.206Z,0
2017-12-28T06:06:52.733Z,0
2017-12-28T06:07:33.299Z,0
2017-12-28T06:08:13.820Z,0
2017-12-28T06:08:54.378Z,0
2017-12-28T06:09:34.931Z,0
2017-12-28T06:10:15.468Z,0
2017-12-28T06:10:55.989Z,0
2017-12-28T06:11:36.558Z,0
2017-12-28T06:12:17.061Z,0
2017-12-28T06:12:57.603Z,0
2017-12-28T06:13:38.185Z,0
2017-12-28T06:14:18.698Z,0
2017-12-28T06:14:59.255Z,0
2017-12-28T06:15:39.812Z,0
2017-12-28T06:16:20.345Z,0
2017-12-28T06:17:00.875Z,0
2017-12-28T06:17:41.364Z,0
2017-12-28T06:18:21.896Z,0
2017-12-28T06:19:02.389Z,0
2017-12-28T06:19:42.948Z,0
2017-12-28T06:20:23.480Z,0
2017-12-28T06:21:04.043Z,0
2017-12-28T06:21:44.574Z,0
2017-12-28T06:22:25.132Z,0
2017-12-28T06:23:05.636Z,0
2017-12-28T06:23:46.200Z,0
2017-12-28T06:24:26.686Z,0
2017-12-28T06:25:07.235Z,0
2017-12-28T06:25:47.811Z,0
2017-12-28T06:26:28.316Z,0
2017-12-28T06:27:08.841Z,0
2017-12-28T06:27:49.416Z,0
2017-12-28T06:28:29.914Z,0
2017-12-28T06:29:10.466Z,0
2017-12-28T06:29:51.012Z,0
2017-12-28T06:30:31.540Z,0
2017-12-28T06:31:12.090Z,0
2017-12-28T06:31:52.620Z,0
2017-12-28T06:32:33.152Z,0
2017-12-28T06:33:13.699Z,0
2017-12-28T06:33:54.224Z,0
2017-12-28T06:34:34.831Z,0
2017-12-28T06:35:15.363Z,0
2017-12-28T06:35:55.880Z,0
2017-12-28T06:36:36.438Z,0
2017-12-28T06:37:16.990Z,0
2017-12-28T06:37:57.461Z,0
2017-12-28T06:38:38.032Z,0
2017-12-28T06:39:18.580Z,0
2017-12-28T06:39:59.118Z,0
2017-12-28T06:40:39.663Z,0
2017-12-28T06:41:20.209Z,0
2017-12-28T06:42:00.765Z,0
2017-12-28T06:42:41.303Z,0
2017-12-28T06:43:21.848Z,0
2017-12-28T06:44:02.376Z,0
2017-12-28T06:44:42.957Z,0
2017-12-28T06:45:23.508Z,0
2017-12-28T06:46:04.014Z,0
2017-12-28T06:46:44.578Z,0
2017-12-28T06:47:25.142Z,0
2017-12-28T06:48:06.847Z,0
2017-12-28T06:48:47.436Z,0
2017-12-28T06:49:27.995Z,0
2017-12-28T06:50:08.504Z,0
2017-12-28T06:50:49.057Z,0
2017-12-28T06:51:29.592Z,0
2017-12-28T06:52:10.161Z,0
2017-12-28T06:52:50.696Z,0
2017-12-28T06:53:31.275Z,0
2017-12-28T06:54:11.892Z,0
2017-12-28T06:54:52.452Z,0
2017-12-28T06:55:33.012Z,0
2017-12-28T06:56:13.569Z,0
2017-12-28T06:56:54.113Z,4
2017-12-28T06:57:34.713Z,4
2017-12-28T06:58:15.218Z,0
2017-12-28T06:58:55.758Z,0
2017-12-28T06:59:36.304Z,4
2017-12-28T07:00:16.833Z,4
2017-12-28T07:00:57.359Z,4
2017-12-28T07:01:37.858Z,4
2017-12-28T07:02:18.455Z,8
2017-12-28T07:02:58.982Z,4
2017-12-28T07:03:39.514Z,8
2017-12-28T07:04:20.078Z,4
2017-12-28T07:05:00.602Z,8
2017-12-28T07:05:41.115Z,8
2017-12-28T07:06:21.627Z,8
2017-12-28T07:07:02.194Z,12
2017-12-28T07:07:42.698Z,8
2017-12-28T07:08:23.221Z,12
2017-12-28T07:09:03.752Z,12
2017-12-28T07:09:44.324Z,12
2017-12-28T07:10:24.864Z,12
2017-12-28T07:11:05.386Z,16
2017-12-28T07:11:45.935Z,16
2017-12-28T07:12:26.422Z,20
2017-12-28T07:13:06.983Z,16
2017-12-28T07:13:47.553Z,20
2017-12-28T07:14:28.112Z,20
2017-12-28T07:15:08.626Z,24
2017-12-28T07:15:49.185Z,20
2017-12-28T07:16:29.695Z,24
2017-12-28T07:17:10.299Z,28
2017-12-28T07:17:50.807Z,24
2017-12-28T07:18:31.339Z,32
2017-12-28T07:19:11.882Z,32
2017-12-28T07:19:52.378Z,32
2017-12-28T07:20:32.959Z,36
2017-12-28T07:21:13.438Z,36
2017-12-28T07:21:53.954Z,44
2017-12-28T07:22:34.515Z,48
2017-12-28T07:23:15.088Z,48
2017-12-28T07:23:55.585Z,52
2017-12-28T07:24:36.233Z,56
2017-12-28T07:25:16.764Z,64
2017-12-28T07:25:57.287Z,68
2017-12-28T07:26:37.822Z,72
2017-12-28T07:27:18.343Z,76
2017-12-28T07:27:58.911Z,84
2017-12-28T07:28:39.447Z,88
2017-12-28T07:29:20.016Z,92
2017-12-28T07:30:00.548Z,104
2017-12-28T07:30:41.083Z,108
2017-12-28T07:31:21.655Z,112
2017-12-28T07:32:02.225Z,116
2017-12-28T07:32:42.774Z,124
2017-12-28T07:33:23.319Z,128
2017-12-28T07:34:03.848Z,136
2017-12-28T07:34:44.404Z,144
2017-12-28T07:35:25.229Z,152
2017-12-28T07:36:07.385Z,152
2017-12-28T07:36:47.951Z,164
2017-12-28T07:37:28.500Z,168
2017-12-28T07:38:09.066Z,180
2017-12-28T07:38:49.648Z,188
2017-12-28T07:39:30.178Z,196
2017-12-28T07:40:10.725Z,204
2017-12-28T07:40:51.272Z,212
2017-12-28T07:41:31.788Z,224
2017-12-28T07:42:12.375Z,232
2017-12-28T07:42:52.913Z,232
2017-12-28T07:43:33.491Z,240
2017-12-28T07:44:14.020Z,244
2017-12-28T07:44:54.596Z,252
2017-12-28T07:45:35.141Z,256
2017-12-28T07:46:15.696Z,248
2017-12-28T07:46:56.235Z,244
2017-12-28T07:47:36.782Z,248
2017-12-28T07:48:17.339Z,260
2017-12-28T07:48:57.859Z,284
2017-12-28T07:49:38.401Z,312
2017-12-28T07:50:18.919Z,340
2017-12-28T07:50:59.458Z,364
2017-12-28T07:51:40.025Z,396
2017-12-28T07:52:20.545Z,420
2017-12-28T07:53:01.054Z,444
2017-12-28T07:53:41.598Z,460
2017-12-28T07:54:22.200Z,476
2017-12-28T07:55:02.699Z,488
2017-12-28T07:55:43.245Z,504
2017-12-28T07:56:23.777Z,512
2017-12-28T07:57:04.314Z,524
2017-12-28T07:57:45.014Z,540
2017-12-28T07:58:25.550Z,548
2017-12-28T07:59:06.045Z,564
2017-12-28T07:59:46.596Z,576
2017-12-28T08:00:27.176Z,580
2017-12-28T08:01:07.694Z,592
2017-12-28T08:01:48.192Z,604
2017-12-28T08:02:28.753Z,616
2017-12-28T08:03:09.277Z,628
2017-12-28T08:03:49.774Z,636
2017-12-28T08:04:30.303Z,644
2017-12-28T08:05:10.857Z,648
2017-12-28T08:05:51.374Z,644
2017-12-28T08:06:31.925Z,632
2017-12-28T08:07:12.444Z,612
2017-12-28T08:07:52.957Z,584
2017-12-28T08:08:33.491Z,544
2017-12-28T08:09:14.068Z,512
2017-12-28T08:09:54.609Z,504
2017-12-28T08:10:35.187Z,508
2017-12-28T08:11:15.712Z,512
2017-12-28T08:11:56.422Z,516
2017-12-28T08:12:36.817Z,528
2017-12-28T08:13:17.358Z,520
2017-12-28T08:13:57.937Z,520
2017-12-28T08:14:38.504Z,512
2017-12-28T08:15:19.022Z,512
2017-12-28T08:15:59.560Z,520
2017-12-28T08:16:40.111Z,532
2017-12-28T08:17:20.603Z,544
2017-12-28T08:18:01.126Z,548
2017-12-28T08:18:41.690Z,544
2017-12-28T08:19:22.208Z,528
2017-12-28T08:20:02.771Z,504
2017-12-28T08:20:43.259Z,480
2017-12-28T08:21:23.786Z,472
2017-12-28T08:22:04.353Z,480
2017-12-28T08:22:44.863Z,472
2017-12-28T08:23:25.459Z,460
2017-12-28T08:24:06.066Z,460
2017-12-28T08:24:46.620Z,472
2017-12-28T08:25:27.093Z,464
2017-12-28T08:26:07.629Z,448
2017-12-28T08:26:48.178Z,432
2017-12-28T08:27:28.715Z,432
2017-12-28T08:28:09.288Z,444
2017-12-28T08:28:49.839Z,444
2017-12-28T08:29:30.389Z,448
2017-12-28T08:30:10.996Z,468
2017-12-28T08:30:51.467Z,492
2017-12-28T08:31:32.055Z,512
2017-12-28T08:32:12.559Z,528
2017-12-28T08:32:53.071Z,540
2017-12-28T08:33:33.615Z,548
2017-12-28T08:34:14.167Z,560
2017-12-28T08:34:54.772Z,560
2017-12-28T08:35:35.281Z,548
2017-12-28T08:36:15.783Z,516
2017-12-28T08:36:56.302Z,468
2017-12-28T08:37:36.834Z,436
2017-12-28T08:38:17.378Z,436
2017-12-28T08:38:57.954Z,464
2017-12-28T08:39:38.470Z,468
2017-12-28T08:40:19.132Z,480
2017-12-28T08:40:59.574Z,508
2017-12-28T08:41:40.052Z,528
2017-12-28T08:42:20.605Z,540
2017-12-28T08:43:01.118Z,564
2017-12-28T08:43:41.633Z,560
2017-12-28T08:44:22.164Z,544
2017-12-28T08:45:02.686Z,536
2017-12-28T08:45:43.246Z,556
2017-12-28T08:46:23.735Z,580
2017-12-28T08:47:04.299Z,600
2017-12-28T08:47:44.803Z,620
2017-12-28T08:48:25.314Z,652
2017-12-28T08:49:05.811Z,680
2017-12-28T08:49:46.351Z,716
2017-12-28T08:50:26.874Z,756
2017-12-28T08:51:07.391Z,776
2017-12-28T08:51:47.944Z,804
2017-12-28T08:52:28.456Z,768
2017-12-28T08:53:08.968Z,704
2017-12-28T08:53:49.512Z,648
2017-12-28T08:54:30.050Z,628
2017-12-28T08:55:10.584Z,644
2017-12-28T08:55:51.113Z,644
2017-12-28T08:56:31.661Z,616
2017-12-28T08:57:12.251Z,584
2017-12-28T08:57:52.820Z,552
2017-12-28T08:58:33.360Z,512
2017-12-28T08:59:13.883Z,472
2017-12-28T08:59:54.417Z,440
2017-12-28T09:00:34.995Z,420
2017-12-28T09:01:15.468Z,412
2017-12-28T09:01:56.019Z,400
2017-12-28T09:02:36.493Z,392
2017-12-28T09:03:17.050Z,384
2017-12-28T09:03:57.599Z,388
2017-12-28T09:04:38.112Z,388
2017-12-28T09:05:18.625Z,384
2017-12-28T09:05:59.158Z,364
2017-12-28T09:06:39.700Z,352
2017-12-28T09:07:20.263Z,344
2017-12-28T09:08:00.768Z,348
2017-12-28T09:08:41.327Z,368
2017-12-28T09:09:21.832Z,392
2017-12-28T09:10:02.384Z,428
2017-12-28T09:10:42.881Z,480
2017-12-28T09:11:23.413Z,512
2017-12-28T09:12:03.956Z,528
2017-12-28T09:12:44.464Z,520
2017-12-28T09:13:25.003Z,516
2017-12-28T09:14:05.573Z,512
2017-12-28T09:14:46.097Z,516
2017-12-28T09:15:26.649Z,516
2017-12-28T09:16:07.153Z,520
2017-12-28T09:16:47.682Z,532
2017-12-28T09:17:28.201Z,548
2017-12-28T09:18:08.699Z,604
2017-12-28T09:18:49.250Z,636
2017-12-28T09:19:29.756Z,640
2017-12-28T09:20:10.297Z,628
2017-12-28T09:20:50.825Z,604
2017-12-28T09:21:31.386Z,604
2017-12-28T09:22:11.870Z,616
2017-12-28T09:22:52.491Z,664
2017-12-28T09:23:33.043Z,768
2017-12-28T09:24:13.596Z,844
2017-12-28T09:24:54.073Z,908
2017-12-28T09:25:34.626Z,948
2017-12-28T09:26:15.197Z,944
2017-12-28T09:26:55.685Z,912
2017-12-28T09:27:36.202Z,916
2017-12-28T09:28:16.719Z,904
2017-12-28T09:28:57.228Z,872
2017-12-28T09:29:37.764Z,840
2017-12-28T09:30:18.292Z,824
2017-12-28T09:30:58.805Z,844
2017-12-28T09:31:39.344Z,888
2017-12-28T09:32:19.875Z,928
2017-12-28T09:33:00.393Z,892
2017-12-28T09:33:40.924Z,856
2017-12-28T09:34:21.465Z,820
2017-12-28T09:35:02.004Z,816
2017-12-28T09:35:42.533Z,840
2017-12-28T09:36:23.023Z,876
2017-12-28T09:37:03.593Z,924
2017-12-28T09:37:44.053Z,960
2017-12-28T09:38:24.632Z,980
2017-12-28T09:39:05.184Z,952
2017-12-28T09:39:45.691Z,924
2017-12-28T09:40:26.217Z,904
2017-12-28T09:41:06.783Z,900
2017-12-28T09:41:47.323Z,940
2017-12-28T09:42:27.850Z,944
2017-12-28T09:43:08.399Z,944
2017-12-28T09:43:48.927Z,884
2017-12-28T09:44:29.453Z,840
2017-12-28T09:45:09.979Z,848
2017-12-28T09:45:50.545Z,888
2017-12-28T09:46:31.047Z,860
2017-12-28T09:47:11.630Z,860
2017-12-28T09:47:52.159Z,856
2017-12-28T09:48:32.774Z,816